sensor_id;sensor_type;location;lat;lon;timestamp;P1;durP1;ratioP1;P2;durP2;ratioP2
4808;SDS011;2418;49.930;8.606;2023-03-01T00:00:37;16.90;;;11.23;;
4808;SDS011;2418;49.930;8.606;2023-03-01T00:03:03;14.38;;;10.80;;
4808;SDS011;2418;49.930;8.606;2023-03-01T00:05:29;21.23;;;12.88;;
4808;SDS011;2418;49.930;8.606;2023-03-01T00:07:55;14.10;;;11.90;;
4808;SDS011;2418;49.930;8.606;2023-03-01T00:10:21;17.60;;;11.90;;
4808;SDS011;2418;49.930;8.606;2023-03-01T00:12:46;14.50;;;12.13;;
4808;SDS011;2418;49.930;8.606;2023-03-01T00:15:12;20.83;;;12.95;;
4808;SDS011;2418;49.930;8.606;2023-03-01T00:17:38;14.80;;;11.55;;
4808;SDS011;2418;49.930;8.606;2023-03-01T00:20:04;18.10;;;12.27;;
4808;SDS011;2418;49.930;8.606;2023-03-01T00:22:35;20.60;;;13.38;;
4808;SDS011;2418;49.930;8.606;2023-03-01T00:25:03;18.33;;;12.88;;
4808;SDS011;2418;49.930;8.606;2023-03-01T00:27:29;17.45;;;12.30;;
4808;SDS011;2418;49.930;8.606;2023-03-01T00:29:55;18.63;;;12.85;;
4808;SDS011;2418;49.930;8.606;2023-03-01T00:32:21;19.05;;;13.45;;
4808;SDS011;2418;49.930;8.606;2023-03-01T00:34:47;18.95;;;12.90;;
4808;SDS011;2418;49.930;8.606;2023-03-01T00:37:21;16.52;;;12.90;;
4808;SDS011;2418;49.930;8.606;2023-03-01T00:39:47;15.80;;;12.13;;
4808;SDS011;2418;49.930;8.606;2023-03-01T00:42:13;16.27;;;12.50;;
4808;SDS011;2418;49.930;8.606;2023-03-01T00:44:39;19.65;;;13.50;;
4808;SDS011;2418;49.930;8.606;2023-03-01T00:47:05;17.77;;;12.98;;
4808;SDS011;2418;49.930;8.606;2023-03-01T00:49:30;18.67;;;14.20;;
4808;SDS011;2418;49.930;8.606;2023-03-01T00:51:56;18.60;;;13.23;;
4808;SDS011;2418;49.930;8.606;2023-03-01T00:54:22;21.08;;;14.02;;
4808;SDS011;2418;49.930;8.606;2023-03-01T00:56:48;18.67;;;14.18;;
4808;SDS011;2418;49.930;8.606;2023-03-01T00:59:13;17.10;;;13.30;;
4808;SDS011;2418;49.930;8.606;2023-03-01T01:01:39;21.05;;;13.88;;
4808;SDS011;2418;49.930;8.606;2023-03-01T01:04:07;22.95;;;15.00;;
4808;SDS011;2418;49.930;8.606;2023-03-01T01:06:38;22.70;;;14.40;;
4808;SDS011;2418;49.930;8.606;2023-03-01T01:09:05;20.20;;;13.48;;
4808;SDS011;2418;49.930;8.606;2023-03-01T01:11:31;15.88;;;12.90;;
4808;SDS011;2418;49.930;8.606;2023-03-01T01:13:58;23.40;;;14.07;;
4808;SDS011;2418;49.930;8.606;2023-03-01T01:16:25;25.10;;;14.45;;
4808;SDS011;2418;49.930;8.606;2023-03-01T01:18:51;22.90;;;14.52;;
4808;SDS011;2418;49.930;8.606;2023-03-01T01:21:18;20.10;;;14.25;;
4808;SDS011;2418;49.930;8.606;2023-03-01T01:23:46;20.95;;;14.27;;
4808;SDS011;2418;49.930;8.606;2023-03-01T01:26:14;20.25;;;14.13;;
4808;SDS011;2418;49.930;8.606;2023-03-01T01:28:42;19.42;;;14.52;;
4808;SDS011;2418;49.930;8.606;2023-03-01T01:31:08;18.88;;;14.27;;
4808;SDS011;2418;49.930;8.606;2023-03-01T01:33:34;20.65;;;14.50;;
4808;SDS011;2418;49.930;8.606;2023-03-01T01:36:00;20.88;;;13.90;;
4808;SDS011;2418;49.930;8.606;2023-03-01T01:38:30;19.67;;;14.60;;
4808;SDS011;2418;49.930;8.606;2023-03-01T01:40:56;20.30;;;14.13;;
4808;SDS011;2418;49.930;8.606;2023-03-01T01:45:53;22.00;;;14.57;;
4808;SDS011;2418;49.930;8.606;2023-03-01T01:48:22;17.60;;;13.10;;
4808;SDS011;2418;49.930;8.606;2023-03-01T01:50:52;20.80;;;13.70;;
4808;SDS011;2418;49.930;8.606;2023-03-01T01:53:22;24.23;;;14.90;;
4808;SDS011;2418;49.930;8.606;2023-03-01T01:55:51;20.33;;;14.60;;
4808;SDS011;2418;49.930;8.606;2023-03-01T01:58:19;20.13;;;14.70;;
4808;SDS011;2418;49.930;8.606;2023-03-01T02:00:46;18.73;;;14.48;;
4808;SDS011;2418;49.930;8.606;2023-03-01T02:03:14;22.50;;;13.40;;
4808;SDS011;2418;49.930;8.606;2023-03-01T02:05:49;20.77;;;14.48;;
4808;SDS011;2418;49.930;8.606;2023-03-01T02:08:17;20.75;;;13.63;;
4808;SDS011;2418;49.930;8.606;2023-03-01T02:10:44;22.00;;;13.90;;
4808;SDS011;2418;49.930;8.606;2023-03-01T02:13:10;21.20;;;14.90;;
4808;SDS011;2418;49.930;8.606;2023-03-01T02:15:37;17.65;;;14.02;;
4808;SDS011;2418;49.930;8.606;2023-03-01T02:18:04;20.00;;;14.47;;
4808;SDS011;2418;49.930;8.606;2023-03-01T02:23:22;21.48;;;14.60;;
4808;SDS011;2418;49.930;8.606;2023-03-01T02:28:24;18.92;;;13.50;;
4808;SDS011;2418;49.930;8.606;2023-03-01T02:30:50;17.50;;;14.30;;
4808;SDS011;2418;49.930;8.606;2023-03-01T02:33:42;21.42;;;13.27;;
4808;SDS011;2418;49.930;8.606;2023-03-01T02:36:10;19.03;;;13.67;;
4808;SDS011;2418;49.930;8.606;2023-03-01T02:38:41;18.17;;;13.88;;
4808;SDS011;2418;49.930;8.606;2023-03-01T02:41:07;21.65;;;14.73;;
4808;SDS011;2418;49.930;8.606;2023-03-01T02:43:36;17.83;;;13.38;;
4808;SDS011;2418;49.930;8.606;2023-03-01T02:46:04;21.52;;;14.50;;
4808;SDS011;2418;49.930;8.606;2023-03-01T02:48:42;18.38;;;13.27;;
4808;SDS011;2418;49.930;8.606;2023-03-01T02:51:30;21.60;;;13.70;;
4808;SDS011;2418;49.930;8.606;2023-03-01T02:54:10;19.45;;;14.23;;
4808;SDS011;2418;49.930;8.606;2023-03-01T02:56:53;20.25;;;13.77;;
4808;SDS011;2418;49.930;8.606;2023-03-01T02:59:21;19.20;;;13.37;;
4808;SDS011;2418;49.930;8.606;2023-03-01T03:01:49;22.45;;;13.52;;
4808;SDS011;2418;49.930;8.606;2023-03-01T03:04:17;21.63;;;13.38;;
4808;SDS011;2418;49.930;8.606;2023-03-01T03:06:46;19.42;;;14.00;;
4808;SDS011;2418;49.930;8.606;2023-03-01T03:09:13;22.53;;;14.80;;
4808;SDS011;2418;49.930;8.606;2023-03-01T03:11:39;21.40;;;14.10;;
4808;SDS011;2418;49.930;8.606;2023-03-01T03:14:06;18.90;;;13.43;;
4808;SDS011;2418;49.930;8.606;2023-03-01T03:16:39;17.50;;;13.80;;
4808;SDS011;2418;49.930;8.606;2023-03-01T03:19:05;21.88;;;14.80;;
4808;SDS011;2418;49.930;8.606;2023-03-01T03:21:32;21.35;;;13.65;;
4808;SDS011;2418;49.930;8.606;2023-03-01T03:23:58;19.50;;;13.37;;
4808;SDS011;2418;49.930;8.606;2023-03-01T03:26:24;21.05;;;13.50;;
4808;SDS011;2418;49.930;8.606;2023-03-01T03:28:49;19.30;;;13.83;;
4808;SDS011;2418;49.930;8.606;2023-03-01T03:31:15;22.17;;;14.60;;
4808;SDS011;2418;49.930;8.606;2023-03-01T03:33:41;28.42;;;14.45;;
4808;SDS011;2418;49.930;8.606;2023-03-01T03:36:07;23.48;;;15.02;;
4808;SDS011;2418;49.930;8.606;2023-03-01T03:38:38;20.30;;;14.38;;
4808;SDS011;2418;49.930;8.606;2023-03-01T03:41:05;16.90;;;13.90;;
4808;SDS011;2418;49.930;8.606;2023-03-01T03:43:33;23.45;;;14.80;;
4808;SDS011;2418;49.930;8.606;2023-03-01T03:45:59;19.15;;;14.20;;
4808;SDS011;2418;49.930;8.606;2023-03-01T03:48:25;20.00;;;14.07;;
4808;SDS011;2418;49.930;8.606;2023-03-01T03:50:52;21.20;;;14.32;;
4808;SDS011;2418;49.930;8.606;2023-03-01T03:53:19;23.63;;;15.25;;
4808;SDS011;2418;49.930;8.606;2023-03-01T03:55:46;21.90;;;14.90;;
4808;SDS011;2418;49.930;8.606;2023-03-01T03:58:14;19.83;;;14.32;;
4808;SDS011;2418;49.930;8.606;2023-03-01T04:00:42;22.17;;;14.55;;
4808;SDS011;2418;49.930;8.606;2023-03-01T04:03:09;19.60;;;14.03;;
4808;SDS011;2418;49.930;8.606;2023-03-01T04:05:36;23.75;;;15.05;;
4808;SDS011;2418;49.930;8.606;2023-03-01T04:08:02;23.10;;;13.93;;
4808;SDS011;2418;49.930;8.606;2023-03-01T04:10:29;17.13;;;14.37;;
4808;SDS011;2418;49.930;8.606;2023-03-01T04:12:55;18.15;;;14.40;;
4808;SDS011;2418;49.930;8.606;2023-03-01T04:15:22;24.45;;;14.68;;
4808;SDS011;2418;49.930;8.606;2023-03-01T04:17:49;19.02;;;14.27;;
4808;SDS011;2418;49.930;8.606;2023-03-01T04:20:17;21.98;;;14.95;;
4808;SDS011;2418;49.930;8.606;2023-03-01T04:22:56;22.73;;;14.40;;
4808;SDS011;2418;49.930;8.606;2023-03-01T04:25:41;20.35;;;14.25;;
4808;SDS011;2418;49.930;8.606;2023-03-01T04:28:07;21.30;;;15.48;;
4808;SDS011;2418;49.930;8.606;2023-03-01T04:30:34;19.95;;;13.93;;
4808;SDS011;2418;49.930;8.606;2023-03-01T04:33:19;23.05;;;15.23;;
4808;SDS011;2418;49.930;8.606;2023-03-01T04:35:46;19.73;;;14.93;;
4808;SDS011;2418;49.930;8.606;2023-03-01T04:38:14;21.25;;;14.20;;
4808;SDS011;2418;49.930;8.606;2023-03-01T04:40:40;24.35;;;15.18;;
4808;SDS011;2418;49.930;8.606;2023-03-01T04:43:08;19.02;;;13.88;;
4808;SDS011;2418;49.930;8.606;2023-03-01T04:45:34;21.65;;;14.20;;
4808;SDS011;2418;49.930;8.606;2023-03-01T04:48:00;21.90;;;13.90;;
4808;SDS011;2418;49.930;8.606;2023-03-01T04:50:27;20.45;;;14.55;;
4808;SDS011;2418;49.930;8.606;2023-03-01T04:52:53;22.15;;;14.88;;
4808;SDS011;2418;49.930;8.606;2023-03-01T04:55:23;21.90;;;14.55;;
4808;SDS011;2418;49.930;8.606;2023-03-01T04:57:50;22.20;;;15.68;;
4808;SDS011;2418;49.930;8.606;2023-03-01T05:00:16;25.40;;;16.33;;
4808;SDS011;2418;49.930;8.606;2023-03-01T05:02:57;23.77;;;15.40;;
4808;SDS011;2418;49.930;8.606;2023-03-01T05:05:34;22.50;;;14.50;;
4808;SDS011;2418;49.930;8.606;2023-03-01T05:08:01;22.90;;;15.07;;
4808;SDS011;2418;49.930;8.606;2023-03-01T05:10:29;24.45;;;16.42;;
4808;SDS011;2418;49.930;8.606;2023-03-01T05:12:57;20.55;;;15.13;;
4808;SDS011;2418;49.930;8.606;2023-03-01T05:15:23;24.90;;;15.38;;
4808;SDS011;2418;49.930;8.606;2023-03-01T05:17:53;21.33;;;13.90;;
4808;SDS011;2418;49.930;8.606;2023-03-01T05:20:19;26.67;;;16.55;;
4808;SDS011;2418;49.930;8.606;2023-03-01T05:22:49;22.35;;;15.00;;
4808;SDS011;2418;49.930;8.606;2023-03-01T05:25:15;25.98;;;14.70;;
4808;SDS011;2418;49.930;8.606;2023-03-01T05:27:42;19.70;;;14.95;;
4808;SDS011;2418;49.930;8.606;2023-03-01T05:30:08;22.60;;;15.50;;
4808;SDS011;2418;49.930;8.606;2023-03-01T05:32:44;24.20;;;15.98;;
4808;SDS011;2418;49.930;8.606;2023-03-01T05:35:12;20.50;;;15.23;;
4808;SDS011;2418;49.930;8.606;2023-03-01T05:37:43;20.42;;;14.48;;
4808;SDS011;2418;49.930;8.606;2023-03-01T05:40:10;24.90;;;16.10;;
4808;SDS011;2418;49.930;8.606;2023-03-01T05:42:41;22.85;;;16.05;;
4808;SDS011;2418;49.930;8.606;2023-03-01T05:45:10;21.50;;;15.93;;
4808;SDS011;2418;49.930;8.606;2023-03-01T05:47:37;22.13;;;16.10;;
4808;SDS011;2418;49.930;8.606;2023-03-01T05:50:04;21.27;;;15.33;;
4808;SDS011;2418;49.930;8.606;2023-03-01T05:52:33;18.17;;;14.82;;
4808;SDS011;2418;49.930;8.606;2023-03-01T05:54:59;22.40;;;16.23;;
4808;SDS011;2418;49.930;8.606;2023-03-01T05:57:25;22.30;;;15.20;;
4808;SDS011;2418;49.930;8.606;2023-03-01T05:59:53;27.92;;;16.80;;
4808;SDS011;2418;49.930;8.606;2023-03-01T06:02:19;22.43;;;16.17;;
4808;SDS011;2418;49.930;8.606;2023-03-01T06:04:45;23.07;;;15.23;;
4808;SDS011;2418;49.930;8.606;2023-03-01T06:07:10;26.77;;;17.38;;
4808;SDS011;2418;49.930;8.606;2023-03-01T06:09:36;27.83;;;17.10;;
4808;SDS011;2418;49.930;8.606;2023-03-01T06:12:01;24.83;;;17.50;;
4808;SDS011;2418;49.930;8.606;2023-03-01T06:14:30;26.13;;;16.90;;
4808;SDS011;2418;49.930;8.606;2023-03-01T06:16:56;22.58;;;16.08;;
4808;SDS011;2418;49.930;8.606;2023-03-01T06:19:23;25.73;;;15.80;;
4808;SDS011;2418;49.930;8.606;2023-03-01T06:21:48;24.00;;;15.63;;
4808;SDS011;2418;49.930;8.606;2023-03-01T06:24:14;24.50;;;16.20;;
4808;SDS011;2418;49.930;8.606;2023-03-01T06:26:40;24.23;;;16.95;;
4808;SDS011;2418;49.930;8.606;2023-03-01T06:29:07;26.33;;;17.48;;
4808;SDS011;2418;49.930;8.606;2023-03-01T06:31:33;26.58;;;17.80;;
4808;SDS011;2418;49.930;8.606;2023-03-01T06:33:59;26.80;;;16.65;;
4808;SDS011;2418;49.930;8.606;2023-03-01T06:36:24;23.33;;;16.15;;
4808;SDS011;2418;49.930;8.606;2023-03-01T06:38:50;23.97;;;16.33;;
4808;SDS011;2418;49.930;8.606;2023-03-01T06:41:16;23.52;;;16.48;;
4808;SDS011;2418;49.930;8.606;2023-03-01T06:43:42;23.08;;;15.93;;
4808;SDS011;2418;49.930;8.606;2023-03-01T06:46:07;21.63;;;14.52;;
4808;SDS011;2418;49.930;8.606;2023-03-01T06:48:33;24.35;;;16.05;;
4808;SDS011;2418;49.930;8.606;2023-03-01T06:51:00;23.45;;;15.88;;
4808;SDS011;2418;49.930;8.606;2023-03-01T06:53:26;23.15;;;16.50;;
4808;SDS011;2418;49.930;8.606;2023-03-01T06:55:56;24.77;;;16.05;;
4808;SDS011;2418;49.930;8.606;2023-03-01T06:58:22;28.02;;;16.15;;
4808;SDS011;2418;49.930;8.606;2023-03-01T07:00:48;23.80;;;16.40;;
4808;SDS011;2418;49.930;8.606;2023-03-01T07:03:13;26.50;;;16.02;;
4808;SDS011;2418;49.930;8.606;2023-03-01T07:05:39;25.73;;;16.05;;
4808;SDS011;2418;49.930;8.606;2023-03-01T07:08:05;23.40;;;15.40;;
4808;SDS011;2418;49.930;8.606;2023-03-01T07:10:31;24.43;;;15.67;;
4808;SDS011;2418;49.930;8.606;2023-03-01T07:12:57;25.30;;;15.48;;
4808;SDS011;2418;49.930;8.606;2023-03-01T07:15:24;24.60;;;16.20;;
4808;SDS011;2418;49.930;8.606;2023-03-01T07:17:50;25.27;;;15.63;;
4808;SDS011;2418;49.930;8.606;2023-03-01T07:20:17;28.07;;;15.83;;
4808;SDS011;2418;49.930;8.606;2023-03-01T07:22:45;25.08;;;16.52;;
4808;SDS011;2418;49.930;8.606;2023-03-01T07:25:10;26.13;;;16.60;;
4808;SDS011;2418;49.930;8.606;2023-03-01T07:27:36;25.23;;;16.47;;
4808;SDS011;2418;49.930;8.606;2023-03-01T07:30:02;23.02;;;16.00;;
4808;SDS011;2418;49.930;8.606;2023-03-01T07:32:28;21.60;;;15.70;;
4808;SDS011;2418;49.930;8.606;2023-03-01T07:34:54;25.38;;;15.63;;
4808;SDS011;2418;49.930;8.606;2023-03-01T07:37:20;20.65;;;14.27;;
4808;SDS011;2418;49.930;8.606;2023-03-01T07:39:46;20.65;;;14.20;;
4808;SDS011;2418;49.930;8.606;2023-03-01T07:42:12;24.50;;;15.00;;
4808;SDS011;2418;49.930;8.606;2023-03-01T07:44:37;23.88;;;14.75;;
4808;SDS011;2418;49.930;8.606;2023-03-01T07:47:04;21.90;;;15.02;;
4808;SDS011;2418;49.930;8.606;2023-03-01T07:49:29;20.15;;;13.55;;
4808;SDS011;2418;49.930;8.606;2023-03-01T07:51:55;20.08;;;14.63;;
4808;SDS011;2418;49.930;8.606;2023-03-01T07:54:21;22.00;;;15.50;;
4808;SDS011;2418;49.930;8.606;2023-03-01T07:56:47;24.33;;;14.50;;
4808;SDS011;2418;49.930;8.606;2023-03-01T07:59:13;20.67;;;14.40;;
4808;SDS011;2418;49.930;8.606;2023-03-01T08:01:40;23.25;;;15.18;;
4808;SDS011;2418;49.930;8.606;2023-03-01T08:04:07;22.52;;;15.00;;
4808;SDS011;2418;49.930;8.606;2023-03-01T08:06:33;20.42;;;15.23;;
4808;SDS011;2418;49.930;8.606;2023-03-01T08:09:00;21.83;;;13.60;;
4808;SDS011;2418;49.930;8.606;2023-03-01T08:11:26;18.13;;;13.40;;
4808;SDS011;2418;49.930;8.606;2023-03-01T08:13:55;18.15;;;13.00;;
4808;SDS011;2418;49.930;8.606;2023-03-01T08:16:23;23.25;;;13.60;;
4808;SDS011;2418;49.930;8.606;2023-03-01T08:18:49;20.88;;;13.25;;
4808;SDS011;2418;49.930;8.606;2023-03-01T08:21:16;24.20;;;14.48;;
4808;SDS011;2418;49.930;8.606;2023-03-01T08:23:42;19.20;;;13.60;;
4808;SDS011;2418;49.930;8.606;2023-03-01T08:28:38;23.27;;;14.05;;
4808;SDS011;2418;49.930;8.606;2023-03-01T08:31:26;21.20;;;13.50;;
4808;SDS011;2418;49.930;8.606;2023-03-01T08:33:58;21.95;;;14.65;;
4808;SDS011;2418;49.930;8.606;2023-03-01T08:36:26;19.75;;;14.43;;
4808;SDS011;2418;49.930;8.606;2023-03-01T08:38:53;24.45;;;14.95;;
4808;SDS011;2418;49.930;8.606;2023-03-01T08:41:18;22.53;;;14.57;;
4808;SDS011;2418;49.930;8.606;2023-03-01T08:43:45;18.95;;;14.30;;
4808;SDS011;2418;49.930;8.606;2023-03-01T08:46:11;15.77;;;11.70;;
4808;SDS011;2418;49.930;8.606;2023-03-01T08:48:37;21.50;;;13.87;;
4808;SDS011;2418;49.930;8.606;2023-03-01T08:51:13;19.27;;;13.38;;
4808;SDS011;2418;49.930;8.606;2023-03-01T08:53:40;16.95;;;12.10;;
4808;SDS011;2418;49.930;8.606;2023-03-01T08:56:06;21.05;;;13.50;;
4808;SDS011;2418;49.930;8.606;2023-03-01T08:58:32;15.95;;;11.55;;
4808;SDS011;2418;49.930;8.606;2023-03-01T09:00:58;19.60;;;13.60;;
4808;SDS011;2418;49.930;8.606;2023-03-01T09:03:24;28.40;;;13.60;;
4808;SDS011;2418;49.930;8.606;2023-03-01T09:05:50;21.52;;;14.15;;
4808;SDS011;2418;49.930;8.606;2023-03-01T09:08:17;22.23;;;14.10;;
4808;SDS011;2418;49.930;8.606;2023-03-01T09:10:43;20.35;;;13.70;;
4808;SDS011;2418;49.930;8.606;2023-03-01T09:13:10;21.27;;;15.38;;
4808;SDS011;2418;49.930;8.606;2023-03-01T09:15:36;18.60;;;13.35;;
4808;SDS011;2418;49.930;8.606;2023-03-01T09:18:02;20.90;;;13.95;;
4808;SDS011;2418;49.930;8.606;2023-03-01T09:20:28;21.15;;;14.88;;
4808;SDS011;2418;49.930;8.606;2023-03-01T09:22:55;20.05;;;14.65;;
4808;SDS011;2418;49.930;8.606;2023-03-01T09:25:21;15.47;;;11.17;;
4808;SDS011;2418;49.930;8.606;2023-03-01T09:27:47;14.60;;;11.75;;
4808;SDS011;2418;49.930;8.606;2023-03-01T09:30:15;23.27;;;14.88;;
4808;SDS011;2418;49.930;8.606;2023-03-01T09:32:42;18.85;;;13.05;;
4808;SDS011;2418;49.930;8.606;2023-03-01T09:35:09;20.70;;;11.75;;
4808;SDS011;2418;49.930;8.606;2023-03-01T09:37:35;20.90;;;14.00;;
4808;SDS011;2418;49.930;8.606;2023-03-01T09:40:02;20.23;;;14.60;;
4808;SDS011;2418;49.930;8.606;2023-03-01T09:42:29;19.45;;;13.90;;
4808;SDS011;2418;49.930;8.606;2023-03-01T09:45:00;24.53;;;14.90;;
4808;SDS011;2418;49.930;8.606;2023-03-01T09:47:29;19.08;;;14.32;;
4808;SDS011;2418;49.930;8.606;2023-03-01T09:49:58;19.58;;;12.98;;
4808;SDS011;2418;49.930;8.606;2023-03-01T09:55:35;19.92;;;13.45;;
4808;SDS011;2418;49.930;8.606;2023-03-01T10:03:58;19.77;;;13.85;;
4808;SDS011;2418;49.930;8.606;2023-03-01T10:06:26;22.00;;;15.10;;
4808;SDS011;2418;49.930;8.606;2023-03-01T10:08:56;23.05;;;13.65;;
4808;SDS011;2418;49.930;8.606;2023-03-01T10:11:26;24.17;;;14.63;;
4808;SDS011;2418;49.930;8.606;2023-03-01T10:16:52;20.90;;;15.07;;
4808;SDS011;2418;49.930;8.606;2023-03-01T10:19:32;21.35;;;14.10;;
4808;SDS011;2418;49.930;8.606;2023-03-01T10:22:00;21.65;;;15.07;;
4808;SDS011;2418;49.930;8.606;2023-03-01T10:24:28;22.75;;;15.27;;
4808;SDS011;2418;49.930;8.606;2023-03-01T10:27:01;25.73;;;15.80;;
4808;SDS011;2418;49.930;8.606;2023-03-01T10:29:31;22.77;;;16.23;;
4808;SDS011;2418;49.930;8.606;2023-03-01T10:32:04;24.35;;;15.45;;
4808;SDS011;2418;49.930;8.606;2023-03-01T10:34:32;17.30;;;13.90;;
4808;SDS011;2418;49.930;8.606;2023-03-01T10:37:16;20.90;;;14.40;;
4808;SDS011;2418;49.930;8.606;2023-03-01T10:40:00;20.35;;;15.15;;
4808;SDS011;2418;49.930;8.606;2023-03-01T10:42:33;17.67;;;14.10;;
4808;SDS011;2418;49.930;8.606;2023-03-01T10:45:47;22.45;;;15.30;;
4808;SDS011;2418;49.930;8.606;2023-03-01T10:50:32;21.77;;;14.38;;
4808;SDS011;2418;49.930;8.606;2023-03-01T10:52:59;22.85;;;14.90;;
4808;SDS011;2418;49.930;8.606;2023-03-01T10:58:06;24.73;;;14.07;;
4808;SDS011;2418;49.930;8.606;2023-03-01T11:00:57;20.88;;;14.25;;
4808;SDS011;2418;49.930;8.606;2023-03-01T11:03:35;21.20;;;15.38;;
4808;SDS011;2418;49.930;8.606;2023-03-01T11:08:41;22.05;;;15.55;;
4808;SDS011;2418;49.930;8.606;2023-03-01T11:16:22;24.13;;;15.60;;
4808;SDS011;2418;49.930;8.606;2023-03-01T11:18:56;22.83;;;14.30;;
4808;SDS011;2418;49.930;8.606;2023-03-01T11:21:22;24.02;;;15.50;;
4808;SDS011;2418;49.930;8.606;2023-03-01T11:23:48;22.27;;;15.52;;
4808;SDS011;2418;49.930;8.606;2023-03-01T11:26:14;21.00;;;14.48;;
4808;SDS011;2418;49.930;8.606;2023-03-01T11:28:41;21.80;;;15.65;;
4808;SDS011;2418;49.930;8.606;2023-03-01T11:31:10;22.42;;;15.05;;
4808;SDS011;2418;49.930;8.606;2023-03-01T11:38:41;20.45;;;14.40;;
4808;SDS011;2418;49.930;8.606;2023-03-01T11:43:55;21.02;;;13.75;;
4808;SDS011;2418;49.930;8.606;2023-03-01T11:56:40;19.80;;;14.27;;
4808;SDS011;2418;49.930;8.606;2023-03-01T11:59:32;18.60;;;14.00;;
4808;SDS011;2418;49.930;8.606;2023-03-01T12:18:06;14.60;;;10.13;;
4808;SDS011;2418;49.930;8.606;2023-03-01T12:23:46;11.60;;;10.32;;
4808;SDS011;2418;49.930;8.606;2023-03-01T12:42:43;13.02;;;8.70;;
4808;SDS011;2418;49.930;8.606;2023-03-01T12:50:42;10.98;;;9.20;;
4808;SDS011;2418;49.930;8.606;2023-03-01T12:53:16;13.82;;;8.90;;
4808;SDS011;2418;49.930;8.606;2023-03-01T12:55:44;12.68;;;10.30;;
4808;SDS011;2418;49.930;8.606;2023-03-01T12:58:24;15.77;;;11.70;;
4808;SDS011;2418;49.930;8.606;2023-03-01T13:06:34;11.25;;;9.32;;
4808;SDS011;2418;49.930;8.606;2023-03-01T13:11:46;15.97;;;10.20;;
4808;SDS011;2418;49.930;8.606;2023-03-01T13:16:50;12.40;;;10.45;;
4808;SDS011;2418;49.930;8.606;2023-03-01T13:19:17;14.10;;;10.75;;
4808;SDS011;2418;49.930;8.606;2023-03-01T13:21:45;14.20;;;11.27;;
4808;SDS011;2418;49.930;8.606;2023-03-01T13:24:24;13.75;;;10.13;;
4808;SDS011;2418;49.930;8.606;2023-03-01T13:27:09;11.07;;;9.52;;
4808;SDS011;2418;49.930;8.606;2023-03-01T13:29:49;14.48;;;11.50;;
4808;SDS011;2418;49.930;8.606;2023-03-01T13:32:27;14.25;;;11.15;;
4808;SDS011;2418;49.930;8.606;2023-03-01T13:34:57;11.18;;;9.68;;
4808;SDS011;2418;49.930;8.606;2023-03-01T13:37:25;11.07;;;9.10;;
4808;SDS011;2418;49.930;8.606;2023-03-01T13:39:54;12.90;;;9.57;;
4808;SDS011;2418;49.930;8.606;2023-03-01T13:45:03;11.25;;;9.70;;
4808;SDS011;2418;49.930;8.606;2023-03-01T13:47:29;12.55;;;10.00;;
4808;SDS011;2418;49.930;8.606;2023-03-01T13:50:02;11.77;;;10.57;;
4808;SDS011;2418;49.930;8.606;2023-03-01T13:54:55;11.70;;;8.63;;
4808;SDS011;2418;49.930;8.606;2023-03-01T13:57:23;15.13;;;9.77;;
4808;SDS011;2418;49.930;8.606;2023-03-01T13:59:50;12.48;;;8.73;;
4808;SDS011;2418;49.930;8.606;2023-03-01T14:02:16;11.23;;;8.80;;
4808;SDS011;2418;49.930;8.606;2023-03-01T14:04:42;12.10;;;8.60;;
4808;SDS011;2418;49.930;8.606;2023-03-01T14:09:37;9.27;;;8.15;;
4808;SDS011;2418;49.930;8.606;2023-03-01T14:12:12;11.50;;;9.23;;
4808;SDS011;2418;49.930;8.606;2023-03-01T14:19:46;9.52;;;8.52;;
4808;SDS011;2418;49.930;8.606;2023-03-01T14:22:32;10.13;;;7.65;;
4808;SDS011;2418;49.930;8.606;2023-03-01T14:25:00;14.07;;;8.90;;
4808;SDS011;2418;49.930;8.606;2023-03-01T14:27:50;9.70;;;8.77;;
4808;SDS011;2418;49.930;8.606;2023-03-01T14:30:23;12.57;;;9.35;;
4808;SDS011;2418;49.930;8.606;2023-03-01T14:33:00;10.48;;;8.55;;
4808;SDS011;2418;49.930;8.606;2023-03-01T14:35:28;10.10;;;9.00;;
4808;SDS011;2418;49.930;8.606;2023-03-01T14:37:54;10.32;;;7.72;;
4808;SDS011;2418;49.930;8.606;2023-03-01T14:40:22;11.10;;;8.25;;
4808;SDS011;2418;49.930;8.606;2023-03-01T14:42:49;12.20;;;8.73;;
4808;SDS011;2418;49.930;8.606;2023-03-01T14:45:15;11.50;;;8.98;;
4808;SDS011;2418;49.930;8.606;2023-03-01T14:47:43;8.65;;;7.72;;
4808;SDS011;2418;49.930;8.606;2023-03-01T14:50:20;9.65;;;7.80;;
4808;SDS011;2418;49.930;8.606;2023-03-01T14:52:47;11.37;;;9.07;;
4808;SDS011;2418;49.930;8.606;2023-03-01T14:55:18;10.10;;;9.10;;
4808;SDS011;2418;49.930;8.606;2023-03-01T14:57:49;11.52;;;8.60;;
4808;SDS011;2418;49.930;8.606;2023-03-01T15:00:21;10.85;;;8.55;;
4808;SDS011;2418;49.930;8.606;2023-03-01T15:02:51;10.30;;;8.90;;
4808;SDS011;2418;49.930;8.606;2023-03-01T15:07:50;10.90;;;8.65;;
4808;SDS011;2418;49.930;8.606;2023-03-01T15:10:21;12.85;;;9.45;;
4808;SDS011;2418;49.930;8.606;2023-03-01T15:12:47;9.20;;;8.32;;
4808;SDS011;2418;49.930;8.606;2023-03-01T15:17:59;11.45;;;8.80;;
4808;SDS011;2418;49.930;8.606;2023-03-01T15:20:28;9.45;;;8.52;;
4808;SDS011;2418;49.930;8.606;2023-03-01T15:22:55;9.18;;;8.25;;
4808;SDS011;2418;49.930;8.606;2023-03-01T15:25:26;8.65;;;7.75;;
4808;SDS011;2418;49.930;8.606;2023-03-01T15:27:53;13.13;;;8.00;;
4808;SDS011;2418;49.930;8.606;2023-03-01T15:30:23;8.43;;;7.57;;
4808;SDS011;2418;49.930;8.606;2023-03-01T15:33:15;8.45;;;7.43;;
4808;SDS011;2418;49.930;8.606;2023-03-01T15:35:45;9.82;;;8.77;;
4808;SDS011;2418;49.930;8.606;2023-03-01T15:40:59;9.80;;;8.18;;
4808;SDS011;2418;49.930;8.606;2023-03-01T15:48:46;12.50;;;9.20;;
4808;SDS011;2418;49.930;8.606;2023-03-01T15:51:14;10.70;;;9.32;;
4808;SDS011;2418;49.930;8.606;2023-03-01T15:53:43;10.55;;;8.50;;
4808;SDS011;2418;49.930;8.606;2023-03-01T15:56:13;11.90;;;8.00;;
4808;SDS011;2418;49.930;8.606;2023-03-01T15:58:39;10.90;;;8.90;;
4808;SDS011;2418;49.930;8.606;2023-03-01T16:01:13;9.77;;;8.40;;
4808;SDS011;2418;49.930;8.606;2023-03-01T16:03:40;14.30;;;8.02;;
4808;SDS011;2418;49.930;8.606;2023-03-01T16:06:08;13.18;;;9.38;;
4808;SDS011;2418;49.930;8.606;2023-03-01T16:08:34;9.40;;;8.50;;
4808;SDS011;2418;49.930;8.606;2023-03-01T16:11:04;12.40;;;9.10;;
4808;SDS011;2418;49.930;8.606;2023-03-01T16:13:30;10.35;;;9.25;;
4808;SDS011;2418;49.930;8.606;2023-03-01T16:15:57;17.27;;;9.88;;
4808;SDS011;2418;49.930;8.606;2023-03-01T16:18:24;11.90;;;9.20;;
4808;SDS011;2418;49.930;8.606;2023-03-01T16:20:50;10.48;;;9.00;;
4808;SDS011;2418;49.930;8.606;2023-03-01T16:23:16;12.02;;;9.10;;
4808;SDS011;2418;49.930;8.606;2023-03-01T16:25:42;9.13;;;6.65;;
4808;SDS011;2418;49.930;8.606;2023-03-01T16:28:08;10.35;;;8.52;;
4808;SDS011;2418;49.930;8.606;2023-03-01T16:30:35;13.43;;;8.82;;
4808;SDS011;2418;49.930;8.606;2023-03-01T16:33:01;11.70;;;8.77;;
4808;SDS011;2418;49.930;8.606;2023-03-01T16:35:31;11.40;;;9.30;;
4808;SDS011;2418;49.930;8.606;2023-03-01T16:37:58;14.32;;;8.10;;
4808;SDS011;2418;49.930;8.606;2023-03-01T16:40:27;11.13;;;8.85;;
4808;SDS011;2418;49.930;8.606;2023-03-01T16:42:54;10.65;;;9.55;;
4808;SDS011;2418;49.930;8.606;2023-03-01T16:45:24;16.97;;;12.77;;
4808;SDS011;2418;49.930;8.606;2023-03-01T16:47:50;14.10;;;11.23;;
4808;SDS011;2418;49.930;8.606;2023-03-01T16:50:16;24.25;;;10.75;;
4808;SDS011;2418;49.930;8.606;2023-03-01T16:52:43;16.10;;;11.85;;
4808;SDS011;2418;49.930;8.606;2023-03-01T16:55:10;14.88;;;9.85;;
4808;SDS011;2418;49.930;8.606;2023-03-01T16:57:36;15.93;;;12.57;;
4808;SDS011;2418;49.930;8.606;2023-03-01T17:00:03;20.55;;;13.52;;
4808;SDS011;2418;49.930;8.606;2023-03-01T17:02:32;12.25;;;9.98;;
4808;SDS011;2418;49.930;8.606;2023-03-01T17:04:58;16.47;;;13.93;;
4808;SDS011;2418;49.930;8.606;2023-03-01T17:07:23;18.00;;;12.40;;
4808;SDS011;2418;49.930;8.606;2023-03-01T17:09:49;15.83;;;11.50;;